ENMS

Mosjøen , Kjærstad Airport

Norway
METAR ENMS 190450Z VRB02KT 9999 -RA FEW025 BKN032 10/09 Q0993 RMK WIND 412FT VRB02KT
Observed Flight Rules
Sep-19 @ 04:50 UTC (24 minutes ago) Visual Flight Rules
Wind Visibility Clouds Conditions
Variable at 2 knots 10,000+ meters
  • Few at 2,500' AGL
  • Broken at 3,200' AGL
  • Light Rain
Temperatures Readings
Current 10°C / 50°F
Dewpoint 9°C / 48°F
Humidity 94%
Altimeter 29.32" Hg
Pressure 993 hPa
Elevation 70
METAR ENMS 190450Z VRB02KT 9999 -RA FEW025 BKN032 10/09 Q0993 RMK WIND 412FT VRB02KT
Observed Flight Rules
Sep-19 @ 04:50 UTC
(24 minutes ago)
VFR
Wind Visibility
Variable at 2 knots 10,000+ meters
Clouds
  • Few at 2,500' AGL
  • Broken at 3,200' AGL
Conditions
  • Light Rain
Temperature Dewpoint
10°C / 50°F 9°C / 48°F
Humidity Altimeter Pressure
94% 29.32" Hg 993 hPa